Time;durP1;ratioP1;P1;durP2;ratioP2;P2;SDS_P1;SDS_P2;PMS_P1;PMS_P2;Temp;Humidity;BMP_temperature;BMP_pressure;BME280_temperature;BME280_humidity;BME280_pressure;Samples;Min_cycle;Max_cycle;Signal;HPM_P1;HPM_P2
2022/10/28 00:00:17;;;;;;;32.63;18.25;;;;;;;;;;4936075;29;20410;-68
2022/10/28 00:02:44;;;;;;;36.63;19.33;;;;;;;;;;4934726;29;20134;-68
2022/10/28 00:05:12;;;;;;;41.70;20.17;;;;;;;;;;4936440;29;20100;-68
2022/10/28 00:07:39;;;;;;;42.95;20.80;;;;;;;;;;4935930;29;20130;-68
2022/10/28 00:10:07;;;;;;;51.60;21.27;;;;;;;;;;4935854;29;20045;-68
2022/10/28 00:12:35;;;;;;;40.33;19.52;;;;;;;;;;4935880;29;20075;-68
2022/10/28 00:15:03;;;;;;;42.97;19.42;;;;;;;;;;4935760;29;20071;-68
2022/10/28 00:17:30;;;;;;;36.42;19.33;;;;;;;;;;4935566;29;20443;-68
2022/10/28 00:19:58;;;;;;;37.85;20.35;;;;;;;;;;4935777;29;20127;-68
2022/10/28 00:22:25;;;;;;;38.35;18.75;;;;;;;;;;4935463;29;20079;-68
2022/10/28 00:24:52;;;;;;;36.78;19.13;;;;;;;;;;4934217;29;20454;-68
2022/10/28 00:27:20;;;;;;;33.15;17.85;;;;;;;;;;4935627;29;20115;-68
2022/10/28 00:29:47;;;;;;;31.80;17.58;;;;;;;;;;4934489;29;20549;-68
2022/10/28 00:32:15;;;;;;;30.60;17.35;;;;;;;;;;4935525;29;20113;-68
2022/10/28 00:34:42;;;;;;;30.00;15.75;;;;;;;;;;4935525;29;20035;-68
2022/10/28 00:37:09;;;;;;;30.73;15.73;;;;;;;;;;4935972;29;20067;-68
2022/10/28 00:39:37;;;;;;;32.25;16.15;;;;;;;;;;4935565;29;20048;-68
2022/10/28 00:42:06;;;;;;;32.63;15.88;;;;;;;;;;4935362;29;20127;-68
2022/10/28 00:44:39;;;;;;;29.90;15.27;;;;;;;;;;4935578;29;20065;-69
2022/10/28 00:47:16;;;;;;;36.15;17.10;;;;;;;;;;4935872;29;20051;-68
2022/10/28 00:49:45;;;;;;;28.08;16.10;;;;;;;;;;4935643;29;20039;-68
2022/10/28 00:52:15;;;;;;;24.75;15.02;;;;;;;;;;4935294;29;20122;-68
2022/10/28 00:54:43;;;;;;;23.00;14.60;;;;;;;;;;4935393;29;20046;-68
2022/10/28 00:57:15;;;;;;;24.38;14.82;;;;;;;;;;4935377;29;20427;-68
2022/10/28 00:59:45;;;;;;;29.45;15.35;;;;;;;;;;4935291;29;20043;-68
2022/10/28 01:02:13;;;;;;;24.60;13.98;;;;;;;;;;4935164;29;20047;-68
2022/10/28 01:04:42;;;;;;;28.98;14.68;;;;;;;;;;4935229;29;20075;-68
2022/10/28 01:07:10;;;;;;;23.80;13.82;;;;;;;;;;4935201;29;20075;-68
2022/10/28 01:09:39;;;;;;;26.90;14.05;;;;;;;;;;4935178;29;20060;-68
2022/10/28 01:12:15;;;;;;;23.02;13.07;;;;;;;;;;4935512;29;20107;-68
2022/10/28 01:14:49;;;;;;;21.30;13.07;;;;;;;;;;4935148;29;20093;-69
2022/10/28 01:17:16;;;;;;;22.17;12.57;;;;;;;;;;4935174;29;20040;-68
2022/10/28 01:19:47;;;;;;;20.88;12.50;;;;;;;;;;4935116;29;20074;-68
2022/10/28 01:22:44;;;;;;;22.58;12.70;;;;;;;;;;4935016;29;20483;-68
2022/10/28 01:25:14;;;;;;;19.55;12.13;;;;;;;;;;4923454;29;20043;-68
2022/10/28 01:27:52;;;;;;;24.00;12.23;;;;;;;;;;4935000;29;20047;-68
2022/10/28 01:30:20;;;;;;;20.83;12.68;;;;;;;;;;4938080;29;20044;-68
2022/10/28 01:32:48;;;;;;;28.25;14.38;;;;;;;;;;4938531;29;20055;-68
2022/10/28 01:35:22;;;;;;;26.98;14.15;;;;;;;;;;4938651;29;20051;-68
2022/10/28 01:37:55;;;;;;;24.23;14.07;;;;;;;;;;4938776;29;20514;-69
2022/10/28 01:40:33;;;;;;;26.05;15.00;;;;;;;;;;4938564;29;20127;-68
2022/10/28 01:43:12;;;;;;;23.20;13.18;;;;;;;;;;4938458;29;20438;-68
2022/10/28 01:45:49;;;;;;;26.38;13.43;;;;;;;;;;4938434;29;20047;-68
2022/10/28 01:48:30;;;;;;;25.00;13.23;;;;;;;;;;4937548;29;20044;-68
2022/10/28 01:51:01;;;;;;;25.27;12.70;;;;;;;;;;4938341;29;20040;-68
2022/10/28 01:53:31;;;;;;;22.88;12.73;;;;;;;;;;4938489;29;20048;-68
2022/10/28 01:56:00;;;;;;;22.00;12.93;;;;;;;;;;4938488;29;20054;-68
2022/10/28 01:58:30;;;;;;;23.92;12.80;;;;;;;;;;4938635;29;20127;-68
2022/10/28 02:00:59;;;;;;;24.73;13.35;;;;;;;;;;4936967;29;20052;-68
2022/10/28 02:03:27;;;;;;;27.85;12.93;;;;;;;;;;4938209;29;20122;-68
2022/10/28 02:05:56;;;;;;;20.67;13.05;;;;;;;;;;4938464;29;20106;-68
2022/10/28 02:08:23;;;;;;;22.00;12.57;;;;;;;;;;4937994;29;20055;-68
2022/10/28 02:11:02;;;;;;;24.58;13.50;;;;;;;;;;4937944;29;20126;-68
2022/10/28 02:13:54;;;;;;;24.02;13.32;;;;;;;;;;4937834;29;20043;-68
2022/10/28 02:16:27;;;;;;;29.95;15.57;;;;;;;;;;4937921;29;20059;-68
2022/10/28 02:19:13;;;;;;;30.65;16.25;;;;;;;;;;4937877;29;20103;-68
2022/10/28 02:21:43;;;;;;;28.98;15.57;;;;;;;;;;4937605;29;20043;-68
2022/10/28 02:24:28;;;;;;;27.85;15.60;;;;;;;;;;4937810;29;20131;-68
2022/10/28 02:27:00;;;;;;;33.38;15.43;;;;;;;;;;4938236;29;20443;-68
2022/10/28 02:29:31;;;;;;;36.13;15.43;;;;;;;;;;4937856;29;20587;-68
2022/10/28 02:32:01;;;;;;;25.30;14.80;;;;;;;;;;4937477;29;20391;-69
2022/10/28 02:34:35;;;;;;;29.35;14.93;;;;;;;;;;4936259;29;20077;-68
2022/10/28 02:37:05;;;;;;;26.08;14.32;;;;;;;;;;4937496;29;20047;-68
2022/10/28 02:39:36;;;;;;;23.80;13.60;;;;;;;;;;4937366;29;20075;-68
2022/10/28 02:42:06;;;;;;;27.42;13.63;;;;;;;;;;4937617;29;20086;-68
2022/10/28 02:44:38;;;;;;;21.50;13.07;;;;;;;;;;4937432;29;20062;-68
2022/10/28 02:47:15;;;;;;;31.23;14.10;;;;;;;;;;4937399;29;20113;-68
2022/10/28 02:49:44;;;;;;;24.20;12.77;;;;;;;;;;4937424;29;20131;-68
2022/10/28 02:52:13;;;;;;;25.02;13.65;;;;;;;;;;4937424;29;20403;-68
2022/10/28 02:54:47;;;;;;;26.58;13.77;;;;;;;;;;4937254;29;20071;-68
2022/10/28 02:57:16;;;;;;;25.57;13.27;;;;;;;;;;4937295;29;20074;-68
2022/10/28 02:59:50;;;;;;;20.90;13.32;;;;;;;;;;4937188;29;20376;-68
2022/10/28 03:02:18;;;;;;;23.92;12.73;;;;;;;;;;4937104;29;20075;-68
2022/10/28 03:04:45;;;;;;;26.45;13.85;;;;;;;;;;4936876;29;20051;-68
2022/10/28 03:07:13;;;;;;;24.45;14.02;;;;;;;;;;4936815;29;20086;-68
2022/10/28 03:09:40;;;;;;;23.45;13.90;;;;;;;;;;4936971;29;20086;-68
2022/10/28 03:12:08;;;;;;;24.30;13.98;;;;;;;;;;4936909;29;20051;-68
2022/10/28 03:14:35;;;;;;;25.77;15.20;;;;;;;;;;4936987;29;20522;-68
2022/10/28 03:17:03;;;;;;;28.10;14.52;;;;;;;;;;4936907;29;20040;-68
2022/10/28 03:19:30;;;;;;;23.85;13.98;;;;;;;;;;4937013;29;20087;-68
2022/10/28 03:21:58;;;;;;;28.60;14.38;;;;;;;;;;4936751;29;20393;-68
2022/10/28 03:24:25;;;;;;;24.02;13.85;;;;;;;;;;4936904;29;20118;-68
2022/10/28 03:26:52;;;;;;;27.02;14.57;;;;;;;;;;4936861;29;20131;-68
2022/10/28 03:29:20;;;;;;;22.98;14.45;;;;;;;;;;4936685;29;20387;-68
2022/10/28 03:31:47;;;;;;;27.15;14.85;;;;;;;;;;4936615;29;20050;-68
2022/10/28 03:34:15;;;;;;;26.90;14.15;;;;;;;;;;4936447;29;20060;-68
2022/10/28 03:36:42;;;;;;;29.27;14.25;;;;;;;;;;4936469;29;20517;-68
2022/10/28 03:39:10;;;;;;;32.30;15.32;;;;;;;;;;4936300;29;20495;-68
2022/10/28 03:41:37;;;;;;;24.67;14.35;;;;;;;;;;4936296;29;20463;-68
2022/10/28 03:44:04;;;;;;;27.40;14.38;;;;;;;;;;4936592;29;20048;-68
2022/10/28 03:46:32;;;;;;;29.45;15.02;;;;;;;;;;4936231;29;20067;-68
2022/10/28 03:49:02;;;;;;;30.00;14.95;;;;;;;;;;4936221;29;20348;-68
2022/10/28 03:51:30;;;;;;;29.73;15.07;;;;;;;;;;4935631;29;20557;-68
2022/10/28 03:53:57;;;;;;;31.08;15.32;;;;;;;;;;4936079;29;20048;-68
2022/10/28 03:56:24;;;;;;;30.58;16.17;;;;;;;;;;4936409;29;20435;-68
2022/10/28 03:58:52;;;;;;;30.80;15.43;;;;;;;;;;4935863;29;20080;-68
2022/10/28 04:01:19;;;;;;;32.50;15.88;;;;;;;;;;4929666;29;20044;-69
2022/10/28 04:03:47;;;;;;;28.80;15.15;;;;;;;;;;4916754;29;20058;-67
2022/10/28 04:06:15;;;;;;;29.15;15.90;;;;;;;;;;4916822;29;20459;-68
2022/10/28 04:08:43;;;;;;;33.92;15.50;;;;;;;;;;4916843;29;20044;-68
2022/10/28 04:11:10;;;;;;;32.08;16.10;;;;;;;;;;4916817;29;20044;-68
2022/10/28 04:13:37;;;;;;;30.92;15.73;;;;;;;;;;4916948;29;20072;-70
2022/10/28 04:16:05;;;;;;;28.45;15.40;;;;;;;;;;4916812;29;20078;-68
2022/10/28 04:18:34;;;;;;;33.55;15.60;;;;;;;;;;4917147;29;20060;-68
2022/10/28 04:21:02;;;;;;;28.63;15.48;;;;;;;;;;4916991;29;20079;-68
2022/10/28 04:23:29;;;;;;;29.38;16.05;;;;;;;;;;4916673;29;20048;-68
2022/10/28 04:25:57;;;;;;;30.33;17.63;;;;;;;;;;4916691;29;20090;-69
2022/10/28 04:28:24;;;;;;;32.58;16.35;;;;;;;;;;4916749;29;20048;-67
2022/10/28 04:30:52;;;;;;;30.73;15.77;;;;;;;;;;4916700;29;20067;-67
2022/10/28 04:33:19;;;;;;;30.90;15.95;;;;;;;;;;4916536;29;20071;-67
2022/10/28 04:35:47;;;;;;;30.30;15.70;;;;;;;;;;4916657;29;20044;-68
2022/10/28 04:38:14;;;;;;;33.17;16.10;;;;;;;;;;4916706;29;20036;-68
2022/10/28 04:40:42;;;;;;;30.38;16.15;;;;;;;;;;4915131;29;20461;-68
2022/10/28 04:43:10;;;;;;;29.23;16.23;;;;;;;;;;4916702;29;20135;-68
2022/10/28 04:45:38;;;;;;;33.03;15.88;;;;;;;;;;4915218;29;20051;-68
2022/10/28 04:48:05;;;;;;;36.47;16.42;;;;;;;;;;4916450;29;20095;-68
2022/10/28 04:50:33;;;;;;;38.92;16.80;;;;;;;;;;4916496;29;20072;-68
2022/10/28 04:53:09;;;;;;;34.47;15.65;;;;;;;;;;4923712;29;20047;-68
2022/10/28 04:55:36;;;;;;;39.97;16.20;;;;;;;;;;4925641;29;20040;-67
2022/10/28 04:58:04;;;;;;;33.60;16.50;;;;;;;;;;4924380;29;20111;-67
2022/10/28 05:00:31;;;;;;;42.00;17.40;;;;;;;;;;4925919;29;20035;-67
2022/10/28 05:03:02;;;;;;;39.97;15.63;;;;;;;;;;4935190;29;20069;-68
2022/10/28 05:05:29;;;;;;;34.97;16.67;;;;;;;;;;4937572;29;20490;-68
2022/10/28 05:07:57;;;;;;;46.25;17.70;;;;;;;;;;4939223;29;20071;-68
2022/10/28 05:10:24;;;;;;;39.30;17.65;;;;;;;;;;4939248;29;20131;-68
2022/10/28 05:12:52;;;;;;;58.13;17.98;;;;;;;;;;4939220;29;20458;-68
2022/10/28 05:15:19;;;;;;;50.40;18.30;;;;;;;;;;4939131;29;20032;-68
2022/10/28 05:17:47;;;;;;;40.95;17.92;;;;;;;;;;4937824;29;20055;-68
2022/10/28 05:20:15;;;;;;;37.40;16.40;;;;;;;;;;4939325;29;20071;-67
2022/10/28 05:22:47;;;;;;;36.03;17.60;;;;;;;;;;4939631;29;20055;-68
2022/10/28 05:25:14;;;;;;;39.80;17.02;;;;;;;;;;4939143;29;20055;-67
2022/10/28 05:27:42;;;;;;;39.13;16.85;;;;;;;;;;4939016;29;20446;-67
2022/10/28 05:30:10;;;;;;;44.13;18.02;;;;;;;;;;4938695;29;20414;-67
2022/10/28 05:32:37;;;;;;;39.53;17.33;;;;;;;;;;4938862;29;20077;-67
2022/10/28 05:35:05;;;;;;;37.58;16.73;;;;;;;;;;4938738;29;20080;-68
2022/10/28 05:37:32;;;;;;;40.00;18.42;;;;;;;;;;4938852;29;20044;-68
2022/10/28 05:39:59;;;;;;;36.65;18.60;;;;;;;;;;4937345;29;20422;-68
2022/10/28 05:42:27;;;;;;;35.28;18.65;;;;;;;;;;4938721;29;20054;-68
2022/10/28 05:44:54;;;;;;;32.92;17.48;;;;;;;;;;4938575;29;20127;-67
2022/10/28 05:47:22;;;;;;;32.53;17.48;;;;;;;;;;4938495;29;20044;-67
2022/10/28 05:49:49;;;;;;;28.88;16.33;;;;;;;;;;4938860;29;20126;-68
2022/10/28 05:52:16;;;;;;;29.88;17.10;;;;;;;;;;4938518;29;20159;-67
2022/10/28 05:54:44;;;;;;;30.85;16.40;;;;;;;;;;4938323;29;20044;-68
2022/10/28 05:57:11;;;;;;;30.80;17.45;;;;;;;;;;4938403;29;20449;-68
2022/10/28 05:59:39;;;;;;;26.00;16.80;;;;;;;;;;4938344;29;20044;-68
2022/10/28 06:02:09;;;;;;;32.95;17.88;;;;;;;;;;4937191;29;20044;-68
2022/10/28 06:04:37;;;;;;;30.77;16.67;;;;;;;;;;4938288;29;20051;-67
2022/10/28 06:07:04;;;;;;;28.88;17.13;;;;;;;;;;4938341;29;20074;-68
2022/10/28 06:09:32;;;;;;;28.17;17.08;;;;;;;;;;4938135;29;20048;-68
2022/10/28 06:11:59;;;;;;;32.47;17.33;;;;;;;;;;4938337;29;20127;-68
2022/10/28 06:14:26;;;;;;;31.33;18.92;;;;;;;;;;4937830;29;20058;-68
2022/10/28 06:16:54;;;;;;;39.72;21.45;;;;;;;;;;4937976;29;20139;-68
2022/10/28 06:19:21;;;;;;;45.75;23.52;;;;;;;;;;4938179;29;20044;-67
2022/10/28 06:21:49;;;;;;;33.67;18.85;;;;;;;;;;4938008;29;20078;-67
2022/10/28 06:24:16;;;;;;;37.90;19.58;;;;;;;;;;4938016;29;20077;-68
2022/10/28 06:26:43;;;;;;;33.80;20.75;;;;;;;;;;4937913;29;20123;-68
2022/10/28 06:29:11;;;;;;;36.95;22.08;;;;;;;;;;4937925;29;20052;-68
2022/10/28 06:31:39;;;;;;;45.08;23.73;;;;;;;;;;4937785;29;20122;-68
2022/10/28 06:34:08;;;;;;;44.95;24.70;;;;;;;;;;4937649;29;20051;-69
2022/10/28 06:36:35;;;;;;;39.35;22.65;;;;;;;;;;4938041;29;20044;-69
2022/10/28 06:39:03;;;;;;;34.28;20.48;;;;;;;;;;4937664;29;20131;-69
2022/10/28 06:41:30;;;;;;;32.60;19.40;;;;;;;;;;4937946;29;20134;-68
2022/10/28 06:43:58;;;;;;;35.30;19.15;;;;;;;;;;4937516;29;20039;-68
2022/10/28 06:46:25;;;;;;;32.00;18.65;;;;;;;;;;4937562;29;20048;-68
2022/10/28 06:48:53;;;;;;;31.83;18.13;;;;;;;;;;4937569;29;20082;-67
2022/10/28 06:51:21;;;;;;;29.85;18.08;;;;;;;;;;4937476;29;20316;-67
2022/10/28 06:53:52;;;;;;;34.20;18.00;;;;;;;;;;4937415;29;20094;-67
2022/10/28 06:56:19;;;;;;;33.03;19.45;;;;;;;;;;4937231;29;20044;-67
2022/10/28 06:58:50;;;;;;;33.67;19.48;;;;;;;;;;4937292;29;20083;-68
2022/10/28 07:01:18;;;;;;;35.63;19.58;;;;;;;;;;4935466;29;20055;-67
2022/10/28 07:03:45;;;;;;;46.38;23.10;;;;;;;;;;4937047;29;20036;-67
2022/10/28 07:06:13;;;;;;;49.67;25.88;;;;;;;;;;4936979;29;20048;-68
2022/10/28 07:08:40;;;;;;;50.55;27.40;;;;;;;;;;4936816;29;20498;-70
2022/10/28 07:11:08;;;;;;;56.80;25.52;;;;;;;;;;4937056;29;20095;-69
2022/10/28 07:13:36;;;;;;;38.38;20.90;;;;;;;;;;4937207;29;20122;-67
2022/10/28 07:16:04;;;;;;;47.80;25.23;;;;;;;;;;4936876;29;20039;-68
2022/10/28 07:18:31;;;;;;;44.33;23.45;;;;;;;;;;4936677;29;20052;-67
2022/10/28 07:20:59;;;;;;;43.20;20.95;;;;;;;;;;4936415;29;20052;-67
2022/10/28 07:23:27;;;;;;;46.97;25.83;;;;;;;;;;4936573;29;20082;-67
2022/10/28 07:25:55;;;;;;;47.58;22.73;;;;;;;;;;4936299;29;20078;-68
2022/10/28 07:28:24;;;;;;;40.47;21.13;;;;;;;;;;4936284;29;20501;-67
2022/10/28 07:30:52;;;;;;;37.33;19.90;;;;;;;;;;4936485;29;20135;-68
2022/10/28 07:33:20;;;;;;;32.75;19.70;;;;;;;;;;4936351;29;20098;-67
2022/10/28 07:35:47;;;;;;;31.17;19.58;;;;;;;;;;4936802;29;20436;-67
2022/10/28 07:38:15;;;;;;;33.00;19.63;;;;;;;;;;4936624;29;20043;-67
2022/10/28 07:40:42;;;;;;;34.28;20.27;;;;;;;;;;4935267;29;20123;-68
2022/10/28 07:43:10;;;;;;;35.13;18.95;;;;;;;;;;4936405;29;20426;-69
2022/10/28 07:45:37;;;;;;;29.35;18.42;;;;;;;;;;4936621;29;20163;-69
2022/10/28 07:48:05;;;;;;;30.08;19.23;;;;;;;;;;4936394;29;20118;-69
2022/10/28 07:50:32;;;;;;;28.38;17.33;;;;;;;;;;4936603;29;20479;-69
2022/10/28 07:53:00;;;;;;;29.40;18.25;;;;;;;;;;4936459;29;20087;-69
2022/10/28 07:55:27;;;;;;;27.67;17.30;;;;;;;;;;4936145;29;20039;-69
2022/10/28 07:57:55;;;;;;;30.15;16.90;;;;;;;;;;4936280;29;20044;-69
2022/10/28 08:00:23;;;;;;;26.23;16.73;;;;;;;;;;4936053;29;20051;-69
2022/10/28 08:02:50;;;;;;;24.50;16.40;;;;;;;;;;4934937;29;20090;-69
2022/10/28 08:05:18;;;;;;;27.40;17.02;;;;;;;;;;4936065;29;20075;-69
2022/10/28 08:07:46;;;;;;;22.23;15.88;;;;;;;;;;4936061;29;20071;-69
2022/10/28 08:10:14;;;;;;;29.40;16.88;;;;;;;;;;4935956;29;20072;-69
2022/10/28 08:12:41;;;;;;;26.85;17.65;;;;;;;;;;4935980;29;20095;-70
2022/10/28 08:15:09;;;;;;;33.58;19.08;;;;;;;;;;4935859;29;20036;-67
2022/10/28 08:17:36;;;;;;;28.52;17.40;;;;;;;;;;4935942;29;20043;-69
2022/10/28 08:20:05;;;;;;;23.77;16.02;;;;;;;;;;4935869;29;20043;-69
2022/10/28 08:22:32;;;;;;;25.40;16.90;;;;;;;;;;4935801;29;20048;-69
2022/10/28 08:24:59;;;;;;;28.17;17.27;;;;;;;;;;4935758;29;20094;-70
2022/10/28 08:27:27;;;;;;;29.40;18.42;;;;;;;;;;4935760;29;20039;-68
2022/10/28 08:29:54;;;;;;;27.52;18.35;;;;;;;;;;4935745;29;20270;-67
2022/10/28 08:32:22;;;;;;;29.65;18.85;;;;;;;;;;4935380;29;20462;-67
2022/10/28 08:34:49;;;;;;;32.28;18.50;;;;;;;;;;4935704;29;20099;-68
2022/10/28 08:37:17;;;;;;;30.95;19.63;;;;;;;;;;4935462;29;20078;-68
2022/10/28 08:39:44;;;;;;;34.25;19.48;;;;;;;;;;4935505;29;20110;-68
2022/10/28 08:42:27;;;;;;;28.23;18.48;;;;;;;;;;4935577;29;20506;-68
2022/10/28 08:44:55;;;;;;;29.70;19.17;;;;;;;;;;4935383;29;20456;-68
2022/10/28 08:47:38;;;;;;;32.60;19.50;;;;;;;;;;4935777;29;20530;-68
2022/10/28 08:50:14;;;;;;;29.83;18.65;;;;;;;;;;4935501;29;20098;-69
2022/10/28 08:52:53;;;;;;;27.13;18.65;;;;;;;;;;4934101;29;20538;-68
2022/10/28 08:55:28;;;;;;;33.33;20.70;;;;;;;;;;4935644;29;20375;-68
2022/10/28 08:57:57;;;;;;;31.85;19.88;;;;;;;;;;4935252;29;20051;-68
2022/10/28 09:00:26;;;;;;;32.53;19.35;;;;;;;;;;4935455;29;20060;-68
2022/10/28 09:02:57;;;;;;;29.15;19.20;;;;;;;;;;4935252;29;20043;-68
2022/10/28 09:05:25;;;;;;;29.95;19.83;;;;;;;;;;4935188;29;20380;-68
2022/10/28 09:07:53;;;;;;;33.03;19.73;;;;;;;;;;4935130;29;20078;-68
2022/10/28 09:10:46;;;;;;;34.25;19.77;;;;;;;;;;4935063;29;20144;-68
2022/10/28 09:13:14;;;;;;;35.80;19.70;;;;;;;;;;4913431;29;20059;-69
2022/10/28 09:15:41;;;;;;;27.75;17.60;;;;;;;;;;4935033;29;20076;-69
2022/10/28 09:18:17;;;;;;;89.18;18.65;;;;;;;;;;4935180;29;20048;-68
2022/10/28 09:20:45;;;;;;;31.77;17.25;;;;;;;;;;4935211;29;20047;-68
2022/10/28 09:23:15;;;;;;;23.83;14.57;;;;;;;;;;4935188;29;20068;-69
2022/10/28 09:25:48;;;;;;;26.80;14.18;;;;;;;;;;4935184;29;20052;-68
2022/10/28 09:28:34;;;;;;;21.80;14.13;;;;;;;;;;4935171;29;20043;-69
2022/10/28 09:31:16;;;;;;;17.50;10.60;;;;;;;;;;4935015;29;20082;-68
2022/10/28 09:33:51;;;;;;;20.33;13.27;;;;;;;;;;4935137;29;20067;-68
2022/10/28 09:36:23;;;;;;;24.83;13.40;;;;;;;;;;4935015;29;20044;-68
2022/10/28 09:38:52;;;;;;;23.80;13.30;;;;;;;;;;4934835;29;20130;-68
2022/10/28 09:41:21;;;;;;;26.42;15.27;;;;;;;;;;4935337;29;20577;-69
2022/10/28 09:43:50;;;;;;;19.88;14.18;;;;;;;;;;4934767;29;20032;-68
2022/10/28 09:46:18;;;;;;;23.27;13.57;;;;;;;;;;4935021;29;20075;-69
2022/10/28 09:48:50;;;;;;;25.83;14.70;;;;;;;;;;4935002;29;20470;-69
2022/10/28 09:51:23;;;;;;;24.95;14.45;;;;;;;;;;4938016;29;20044;-69
2022/10/28 09:53:53;;;;;;;22.10;13.85;;;;;;;;;;4938411;29;20050;-69
2022/10/28 09:56:20;;;;;;;22.17;14.18;;;;;;;;;;4938500;29;20048;-69
2022/10/28 09:58:48;;;;;;;26.27;13.18;;;;;;;;;;4938390;29;20035;-69
2022/10/28 10:01:17;;;;;;;18.10;11.30;;;;;;;;;;4938515;29;20147;-68
2022/10/28 10:03:47;;;;;;;22.63;11.52;;;;;;;;;;4938279;29;20051;-69
2022/10/28 10:06:17;;;;;;;22.52;11.65;;;;;;;;;;4938327;29;20039;-69
2022/10/28 10:08:46;;;;;;;26.00;12.38;;;;;;;;;;4938263;29;20044;-69
2022/10/28 10:11:13;;;;;;;19.77;12.65;;;;;;;;;;4937099;29;20120;-69
2022/10/28 10:13:41;;;;;;;21.60;13.25;;;;;;;;;;4938274;29;20043;-69
2022/10/28 10:16:14;;;;;;;21.75;12.25;;;;;;;;;;4938196;29;20131;-69
2022/10/28 10:18:47;;;;;;;20.50;12.07;;;;;;;;;;4938005;29;20044;-69
2022/10/28 10:21:15;;;;;;;22.48;10.70;;;;;;;;;;4937904;29;20039;-69
2022/10/28 10:23:42;;;;;;;20.40;11.13;;;;;;;;;;4937941;29;20040;-69
2022/10/28 10:26:12;;;;;;;16.45;10.98;;;;;;;;;;4937878;29;20075;-69
2022/10/28 10:28:43;;;;;;;19.33;11.18;;;;;;;;;;4937919;29;20046;-69
2022/10/28 10:31:25;;;;;;;18.88;11.80;;;;;;;;;;4937788;29;20521;-69
2022/10/28 10:33:54;;;;;;;23.80;12.55;;;;;;;;;;4937619;29;20052;-69
2022/10/28 10:36:27;;;;;;;15.15;9.32;;;;;;;;;;4937697;29;20040;-69
2022/10/28 10:38:58;;;;;;;15.20;8.57;;;;;;;;;;4937864;29;20410;-68
2022/10/28 10:41:33;;;;;;;12.43;7.25;;;;;;;;;;4936403;29;20116;-69
2022/10/28 10:44:00;;;;;;;;;;;;;;;;;;4937992;29;20048;-69
2022/10/28 10:46:31;;;;;;;15.27;7.82;;;;;;;;;;4937500;29;20400;-69
2022/10/28 10:49:14;;;;;;;15.10;8.40;;;;;;;;;;4936478;29;20414;-69
2022/10/28 10:51:56;;;;;;;14.45;7.43;;;;;;;;;;4937395;29;20052;-69
2022/10/28 10:54:24;;;;;;;12.85;6.47;;;;;;;;;;4937488;29;20079;-69
2022/10/28 10:56:52;;;;;;;10.15;6.60;;;;;;;;;;4937675;29;20067;-69
2022/10/28 10:59:19;;;;;;;10.90;6.43;;;;;;;;;;4937369;29;20135;-69
2022/10/28 11:01:47;;;;;;;9.63;5.70;;;;;;;;;;4937252;29;20079;-69
2022/10/28 11:04:19;;;;;;;12.98;6.60;;;;;;;;;;4937500;29;20056;-69
2022/10/28 11:06:51;;;;;;;8.77;6.13;;;;;;;;;;4937254;29;20047;-69
2022/10/28 11:09:33;;;;;;;9.98;5.47;;;;;;;;;;4937391;29;20484;-69
2022/10/28 11:12:01;;;;;;;14.50;6.88;;;;;;;;;;4937041;29;20051;-69
2022/10/28 11:14:32;;;;;;;12.50;6.85;;;;;;;;;;4937110;29;20036;-69
2022/10/28 11:17:00;;;;;;;14.73;6.47;;;;;;;;;;4937103;29;20070;-69
2022/10/28 11:19:35;;;;;;;10.57;6.95;;;;;;;;;;4937532;29;20050;-69
2022/10/28 11:22:15;;;;;;;10.20;5.80;;;;;;;;;;4935647;29;20048;-69
2022/10/28 11:24:46;;;;;;;17.40;6.90;;;;;;;;;;4936970;29;20059;-69
2022/10/28 11:27:13;;;;;;;11.82;6.30;;;;;;;;;;4937072;29;20079;-69
2022/10/28 11:29:41;;;;;;;13.18;7.10;;;;;;;;;;4926148;29;20084;-70
2022/10/28 11:32:14;;;;;;;16.13;7.30;;;;;;;;;;4917751;29;20044;-72
2022/10/28 11:35:11;;;;;;;12.18;6.32;;;;;;;;;;4917705;29;20509;-70
2022/10/28 11:37:48;;;;;;;9.40;4.88;;;;;;;;;;4905392;29;20131;-70
2022/10/28 11:40:26;;;;;;;10.10;5.28;;;;;;;;;;4917449;29;20040;-69
2022/10/28 11:42:57;;;;;;;9.57;5.90;;;;;;;;;;4917399;29;20495;-68
2022/10/28 11:45:27;;;;;;;13.25;5.72;;;;;;;;;;4917434;29;20048;-69
2022/10/28 11:47:54;;;;;;;11.32;6.53;;;;;;;;;;4917475;29;20040;-69
2022/10/28 11:50:40;;;;;;;7.85;5.60;;;;;;;;;;4917507;29;20099;-69
2022/10/28 11:53:08;;;;;;;;;;;;;;;;;;4918079;29;20048;-69
2022/10/28 11:55:35;;;;;;;11.32;5.43;;;;;;;;;;4917371;29;19941;-69
2022/10/28 11:58:03;;;;;;;14.73;5.72;;;;;;;;;;4917235;29;20083;-68
2022/10/28 12:00:36;;;;;;;11.88;5.40;;;;;;;;;;4917329;29;20455;-68
2022/10/28 12:03:24;;;;;;;9.82;4.90;;;;;;;;;;4917072;29;20048;-68
2022/10/28 12:06:02;;;;;;;7.57;4.18;;;;;;;;;;4888441;29;20044;-68
2022/10/28 12:08:29;;;;;;;8.38;4.38;;;;;;;;;;4917017;29;20476;-68
2022/10/28 12:11:20;;;;;;;7.80;4.38;;;;;;;;;;4917223;29;20044;-68
2022/10/28 12:14:07;;;;;;;7.35;4.85;;;;;;;;;;4890266;29;20059;-68
2022/10/28 12:16:43;;;;;;;7.35;4.30;;;;;;;;;;4916998;29;20047;-68
2022/10/28 12:19:11;;;;;;;10.30;5.70;;;;;;;;;;4916965;29;20040;-68
2022/10/28 12:21:45;;;;;;;7.82;4.60;;;;;;;;;;4916986;29;20048;-68
2022/10/28 12:24:16;;;;;;;7.28;3.85;;;;;;;;;;4916885;29;20044;-68
2022/10/28 12:26:47;;;;;;;7.15;4.00;;;;;;;;;;4916795;29;20040;-68
2022/10/28 12:29:17;;;;;;;11.07;4.35;;;;;;;;;;4917109;29;20111;-68
2022/10/28 12:31:47;;;;;;;5.57;4.03;;;;;;;;;;4916791;29;20052;-69
2022/10/28 12:34:19;;;;;;;11.50;4.63;;;;;;;;;;4916876;29;20481;-68
2022/10/28 12:36:54;;;;;;;7.13;4.15;;;;;;;;;;4916662;29;20055;-68
2022/10/28 12:39:25;;;;;;;11.00;5.00;;;;;;;;;;4916865;29;20406;-68
2022/10/28 12:42:14;;;;;;;7.20;4.30;;;;;;;;;;4916764;29;20044;-68
2022/10/28 12:44:42;;;;;;;8.15;4.75;;;;;;;;;;4916788;29;20048;-68
2022/10/28 12:47:20;;;;;;;7.78;5.00;;;;;;;;;;4915509;29;20051;-68
2022/10/28 12:49:48;;;;;;;7.30;4.20;;;;;;;;;;4916538;29;20403;-68
2022/10/28 12:52:21;;;;;;;5.82;4.00;;;;;;;;;;4916540;29;20079;-68
2022/10/28 12:54:51;;;;;;;6.68;3.95;;;;;;;;;;4916485;29;20551;-68
2022/10/28 12:57:22;;;;;;;9.18;5.15;;;;;;;;;;4916304;29;20096;-68
2022/10/28 13:00:01;;;;;;;11.43;9.70;;;;;;;;;;4916293;29;20040;-68
2022/10/28 13:02:30;;;;;;;8.15;3.97;;;;;;;;;;4916220;29;20052;-68
2022/10/28 13:04:58;;;;;;;8.85;5.47;;;;;;;;;;4916254;29;20056;-68
2022/10/28 13:07:38;;;;;;;9.88;5.00;;;;;;;;;;4915144;29;20067;-68
2022/10/28 13:10:06;;;;;;;7.78;5.32;;;;;;;;;;4916355;29;20044;-68
2022/10/28 13:12:33;;;;;;;6.28;4.22;;;;;;;;;;4916240;29;20046;-68
2022/10/28 13:15:19;;;;;;;8.02;3.95;;;;;;;;;;4916265;29;20059;-68
2022/10/28 13:18:10;;;;;;;7.00;4.30;;;;;;;;;;4916270;29;20459;-68
2022/10/28 13:20:47;;;;;;;8.68;4.35;;;;;;;;;;4909053;29;20818;-68
2022/10/28 13:23:27;;;;;;;7.82;4.22;;;;;;;;;;4914762;29;20048;-68
2022/10/28 13:25:58;;;;;;;7.30;4.03;;;;;;;;;;4918730;29;20402;-68
2022/10/28 13:28:30;;;;;;;8.70;4.45;;;;;;;;;;4919774;29;20048;-68
2022/10/28 13:30:58;;;;;;;8.48;4.80;;;;;;;;;;4920188;29;20055;-68
2022/10/28 13:33:27;;;;;;;5.55;4.10;;;;;;;;;;4919639;29;20574;-68
2022/10/28 13:35:55;;;;;;;7.78;4.15;;;;;;;;;;4919764;29;20558;-68
2022/10/28 13:38:24;;;;;;;8.05;4.43;;;;;;;;;;4919791;29;20123;-68
2022/10/28 13:40:57;;;;;;;9.73;5.95;;;;;;;;;;4919549;29;20047;-68
2022/10/28 13:43:44;;;;;;;10.30;5.15;;;;;;;;;;4919882;29;20395;-68
2022/10/28 13:46:11;;;;;;;13.70;5.30;;;;;;;;;;4919614;29;20435;-69
2022/10/28 13:48:41;;;;;;;11.45;4.93;;;;;;;;;;4919387;29;20143;-70
2022/10/28 13:51:09;;;;;;;7.55;4.43;;;;;;;;;;4919534;29;20044;-69
2022/10/28 13:53:38;;;;;;;11.80;5.05;;;;;;;;;;4919600;29;20074;-69
2022/10/28 13:56:11;;;;;;;11.63;4.82;;;;;;;;;;4919500;29;20056;-69
2022/10/28 13:58:48;;;;;;;6.65;4.18;;;;;;;;;;4919395;29;20044;-69
2022/10/28 14:01:35;;;;;;;9.45;4.57;;;;;;;;;;4918360;29;20075;-70
2022/10/28 14:04:04;;;;;;;10.80;4.63;;;;;;;;;;4919190;29;20056;-69
2022/10/28 14:06:33;;;;;;;10.80;4.43;;;;;;;;;;4917066;29;20067;-68
2022/10/28 14:09:00;;;;;;;10.05;4.63;;;;;;;;;;4915165;29;20064;-68
2022/10/28 14:11:29;;;;;;;9.00;4.75;;;;;;;;;;4918302;29;20087;-68
2022/10/28 14:13:59;;;;;;;7.30;4.40;;;;;;;;;;4917931;29;20040;-68
2022/10/28 14:16:29;;;;;;;7.60;4.05;;;;;;;;;;4917893;29;20095;-68
2022/10/28 14:19:14;;;;;;;8.73;5.03;;;;;;;;;;4918274;29;20040;-68
2022/10/28 14:21:51;;;;;;;9.02;4.45;;;;;;;;;;4907810;29;20052;-69
2022/10/28 14:24:37;;;;;;;8.02;4.30;;;;;;;;;;4917949;29;20046;-69
2022/10/28 14:27:05;;;;;;;7.32;5.65;;;;;;;;;;4916502;29;20459;-68
2022/10/28 14:29:43;;;;;;;16.38;7.22;;;;;;;;;;4918643;29;20068;-68
2022/10/28 14:32:29;;;;;;;12.57;5.70;;;;;;;;;;4918565;29;20104;-68
2022/10/28 14:34:59;;;;;;;18.08;7.75;;;;;;;;;;4918798;29;20036;-68
2022/10/28 14:37:39;;;;;;;11.80;5.65;;;;;;;;;;4918161;29;20051;-68
2022/10/28 14:40:19;;;;;;;14.93;8.95;;;;;;;;;;4917727;29;20055;-68
2022/10/28 14:42:53;;;;;;;10.88;6.35;;;;;;;;;;4918388;29;20107;-68